sensor_id;sensor_type;location;lat;lon;timestamp;P1;durP1;ratioP1;P2;durP2;ratioP2
7703;SDS011;3894;49.700;10.770;2023-09-18T00:00:23;6.55;;;3.47;;
7703;SDS011;3894;49.700;10.770;2023-09-18T00:02:48;8.23;;;3.60;;
7703;SDS011;3894;49.700;10.770;2023-09-18T00:05:14;8.35;;;4.05;;
7703;SDS011;3894;49.700;10.770;2023-09-18T00:07:41;7.93;;;3.75;;
7703;SDS011;3894;49.700;10.770;2023-09-18T00:10:08;6.45;;;3.33;;
7703;SDS011;3894;49.700;10.770;2023-09-18T00:12:34;7.97;;;3.75;;
7703;SDS011;3894;49.700;10.770;2023-09-18T00:15:00;6.97;;;3.92;;
7703;SDS011;3894;49.700;10.770;2023-09-18T00:17:26;8.57;;;4.55;;
7703;SDS011;3894;49.700;10.770;2023-09-18T00:19:51;7.57;;;3.70;;
7703;SDS011;3894;49.700;10.770;2023-09-18T00:22:17;8.23;;;3.42;;
7703;SDS011;3894;49.700;10.770;2023-09-18T00:24:42;6.82;;;4.10;;
7703;SDS011;3894;49.700;10.770;2023-09-18T00:27:08;7.40;;;4.18;;
7703;SDS011;3894;49.700;10.770;2023-09-18T00:32:01;6.70;;;3.28;;
7703;SDS011;3894;49.700;10.770;2023-09-18T00:34:26;7.50;;;3.53;;
7703;SDS011;3894;49.700;10.770;2023-09-18T00:36:52;7.15;;;3.47;;
7703;SDS011;3894;49.700;10.770;2023-09-18T00:39:17;7.25;;;3.78;;
7703;SDS011;3894;49.700;10.770;2023-09-18T00:41:43;7.82;;;3.83;;
7703;SDS011;3894;49.700;10.770;2023-09-18T00:44:14;7.72;;;3.92;;
7703;SDS011;3894;49.700;10.770;2023-09-18T00:46:40;8.20;;;3.53;;
7703;SDS011;3894;49.700;10.770;2023-09-18T00:49:05;7.15;;;3.50;;
7703;SDS011;3894;49.700;10.770;2023-09-18T00:51:31;6.63;;;3.42;;
7703;SDS011;3894;49.700;10.770;2023-09-18T00:53:57;8.80;;;3.67;;
7703;SDS011;3894;49.700;10.770;2023-09-18T00:56:24;6.95;;;3.60;;
7703;SDS011;3894;49.700;10.770;2023-09-18T00:58:50;7.65;;;3.78;;
7703;SDS011;3894;49.700;10.770;2023-09-18T01:01:17;7.43;;;3.53;;
7703;SDS011;3894;49.700;10.770;2023-09-18T01:03:48;8.10;;;4.10;;
7703;SDS011;3894;49.700;10.770;2023-09-18T01:06:16;7.57;;;4.07;;
7703;SDS011;3894;49.700;10.770;2023-09-18T01:08:43;6.90;;;3.42;;
7703;SDS011;3894;49.700;10.770;2023-09-18T01:13:53;7.70;;;3.83;;
7703;SDS011;3894;49.700;10.770;2023-09-18T01:16:27;9.02;;;3.92;;
7703;SDS011;3894;49.700;10.770;2023-09-18T01:18:59;8.40;;;3.75;;
7703;SDS011;3894;49.700;10.770;2023-09-18T01:21:27;8.50;;;4.63;;
7703;SDS011;3894;49.700;10.770;2023-09-18T01:23:53;7.03;;;3.65;;
7703;SDS011;3894;49.700;10.770;2023-09-18T01:26:19;8.57;;;3.85;;
7703;SDS011;3894;49.700;10.770;2023-09-18T01:28:44;7.47;;;3.67;;
7703;SDS011;3894;49.700;10.770;2023-09-18T01:31:10;7.78;;;3.72;;
7703;SDS011;3894;49.700;10.770;2023-09-18T01:33:35;7.80;;;3.80;;
7703;SDS011;3894;49.700;10.770;2023-09-18T01:36:03;7.20;;;4.28;;
7703;SDS011;3894;49.700;10.770;2023-09-18T01:38:33;6.38;;;3.15;;
7703;SDS011;3894;49.700;10.770;2023-09-18T01:41:00;6.88;;;3.88;;
7703;SDS011;3894;49.700;10.770;2023-09-18T01:43:26;8.05;;;4.00;;
7703;SDS011;3894;49.700;10.770;2023-09-18T01:45:52;8.88;;;3.33;;
7703;SDS011;3894;49.700;10.770;2023-09-18T01:48:19;7.60;;;4.18;;
7703;SDS011;3894;49.700;10.770;2023-09-18T01:50:44;6.30;;;3.60;;
7703;SDS011;3894;49.700;10.770;2023-09-18T01:53:10;7.35;;;3.90;;
7703;SDS011;3894;49.700;10.770;2023-09-18T01:55:37;8.25;;;3.78;;
7703;SDS011;3894;49.700;10.770;2023-09-18T01:58:03;6.57;;;3.47;;
7703;SDS011;3894;49.700;10.770;2023-09-18T02:00:29;7.05;;;4.07;;
7703;SDS011;3894;49.700;10.770;2023-09-18T02:02:54;6.97;;;3.50;;
7703;SDS011;3894;49.700;10.770;2023-09-18T02:05:20;9.00;;;3.95;;
7703;SDS011;3894;49.700;10.770;2023-09-18T02:07:45;6.55;;;3.53;;
7703;SDS011;3894;49.700;10.770;2023-09-18T02:10:11;8.15;;;3.65;;
7703;SDS011;3894;49.700;10.770;2023-09-18T02:12:39;6.50;;;3.35;;
7703;SDS011;3894;49.700;10.770;2023-09-18T02:15:05;7.47;;;3.58;;
7703;SDS011;3894;49.700;10.770;2023-09-18T02:17:32;6.63;;;3.30;;
7703;SDS011;3894;49.700;10.770;2023-09-18T02:19:57;7.00;;;3.10;;
7703;SDS011;3894;49.700;10.770;2023-09-18T02:22:25;7.25;;;3.63;;
7703;SDS011;3894;49.700;10.770;2023-09-18T02:24:50;6.90;;;3.50;;
7703;SDS011;3894;49.700;10.770;2023-09-18T02:27:16;6.85;;;3.25;;
7703;SDS011;3894;49.700;10.770;2023-09-18T02:29:43;7.60;;;3.42;;
7703;SDS011;3894;49.700;10.770;2023-09-18T02:32:09;6.97;;;3.30;;
7703;SDS011;3894;49.700;10.770;2023-09-18T02:34:35;7.65;;;3.42;;
7703;SDS011;3894;49.700;10.770;2023-09-18T02:37:00;8.15;;;3.88;;
7703;SDS011;3894;49.700;10.770;2023-09-18T02:39:26;7.20;;;3.35;;
7703;SDS011;3894;49.700;10.770;2023-09-18T02:41:51;5.93;;;3.22;;
7703;SDS011;3894;49.700;10.770;2023-09-18T02:44:17;8.23;;;3.28;;
7703;SDS011;3894;49.700;10.770;2023-09-18T02:46:43;7.13;;;3.50;;
7703;SDS011;3894;49.700;10.770;2023-09-18T02:49:08;7.50;;;3.38;;
7703;SDS011;3894;49.700;10.770;2023-09-18T02:51:34;6.95;;;3.60;;
7703;SDS011;3894;49.700;10.770;2023-09-18T02:53:59;6.60;;;3.35;;
7703;SDS011;3894;49.700;10.770;2023-09-18T02:56:25;7.22;;;3.13;;
7703;SDS011;3894;49.700;10.770;2023-09-18T02:58:51;8.05;;;3.28;;
7703;SDS011;3894;49.700;10.770;2023-09-18T03:01:16;6.35;;;3.17;;
7703;SDS011;3894;49.700;10.770;2023-09-18T03:03:42;7.90;;;3.67;;
7703;SDS011;3894;49.700;10.770;2023-09-18T03:06:08;6.85;;;3.38;;
7703;SDS011;3894;49.700;10.770;2023-09-18T03:08:33;6.72;;;3.13;;
7703;SDS011;3894;49.700;10.770;2023-09-18T03:10:59;7.28;;;3.28;;
7703;SDS011;3894;49.700;10.770;2023-09-18T03:13:30;6.38;;;3.13;;
7703;SDS011;3894;49.700;10.770;2023-09-18T03:15:56;6.88;;;3.67;;
7703;SDS011;3894;49.700;10.770;2023-09-18T03:18:21;6.13;;;2.90;;
7703;SDS011;3894;49.700;10.770;2023-09-18T03:20:47;6.15;;;3.08;;
7703;SDS011;3894;49.700;10.770;2023-09-18T03:23:13;8.98;;;3.88;;
7703;SDS011;3894;49.700;10.770;2023-09-18T03:25:39;6.05;;;3.17;;
7703;SDS011;3894;49.700;10.770;2023-09-18T03:28:05;7.63;;;3.42;;
7703;SDS011;3894;49.700;10.770;2023-09-18T03:30:30;6.50;;;3.20;;
7703;SDS011;3894;49.700;10.770;2023-09-18T03:32:56;6.97;;;3.33;;
7703;SDS011;3894;49.700;10.770;2023-09-18T03:35:22;6.63;;;3.28;;
7703;SDS011;3894;49.700;10.770;2023-09-18T03:37:48;5.70;;;2.95;;
7703;SDS011;3894;49.700;10.770;2023-09-18T03:40:16;6.43;;;3.17;;
7703;SDS011;3894;49.700;10.770;2023-09-18T03:42:42;7.18;;;3.13;;
7703;SDS011;3894;49.700;10.770;2023-09-18T03:45:10;6.88;;;3.58;;
7703;SDS011;3894;49.700;10.770;2023-09-18T03:47:36;7.57;;;3.25;;
7703;SDS011;3894;49.700;10.770;2023-09-18T03:50:04;7.68;;;3.70;;
7703;SDS011;3894;49.700;10.770;2023-09-18T03:52:30;6.07;;;3.35;;
7703;SDS011;3894;49.700;10.770;2023-09-18T03:54:56;6.28;;;3.72;;
7703;SDS011;3894;49.700;10.770;2023-09-18T03:57:21;6.63;;;3.40;;
7703;SDS011;3894;49.700;10.770;2023-09-18T03:59:47;7.28;;;3.42;;
7703;SDS011;3894;49.700;10.770;2023-09-18T04:02:13;6.40;;;3.30;;
7703;SDS011;3894;49.700;10.770;2023-09-18T04:04:38;6.70;;;3.25;;
7703;SDS011;3894;49.700;10.770;2023-09-18T04:07:07;7.10;;;3.45;;
7703;SDS011;3894;49.700;10.770;2023-09-18T04:09:33;5.30;;;2.63;;
7703;SDS011;3894;49.700;10.770;2023-09-18T04:11:59;6.85;;;3.40;;
7703;SDS011;3894;49.700;10.770;2023-09-18T04:14:26;6.53;;;3.47;;
7703;SDS011;3894;49.700;10.770;2023-09-18T04:16:51;6.68;;;3.33;;
7703;SDS011;3894;49.700;10.770;2023-09-18T04:19:17;7.43;;;3.65;;
7703;SDS011;3894;49.700;10.770;2023-09-18T04:21:43;7.35;;;4.20;;
7703;SDS011;3894;49.700;10.770;2023-09-18T04:24:08;8.38;;;4.10;;
7703;SDS011;3894;49.700;10.770;2023-09-18T04:26:34;7.43;;;3.58;;
7703;SDS011;3894;49.700;10.770;2023-09-18T04:29:00;7.07;;;3.55;;
7703;SDS011;3894;49.700;10.770;2023-09-18T04:31:27;7.63;;;4.32;;
7703;SDS011;3894;49.700;10.770;2023-09-18T04:33:53;7.97;;;3.60;;
7703;SDS011;3894;49.700;10.770;2023-09-18T04:36:19;9.30;;;4.10;;
7703;SDS011;3894;49.700;10.770;2023-09-18T04:38:44;8.05;;;3.40;;
7703;SDS011;3894;49.700;10.770;2023-09-18T04:41:10;7.85;;;4.30;;
7703;SDS011;3894;49.700;10.770;2023-09-18T04:43:36;9.13;;;3.45;;
7703;SDS011;3894;49.700;10.770;2023-09-18T04:46:05;7.13;;;3.63;;
7703;SDS011;3894;49.700;10.770;2023-09-18T04:48:31;6.95;;;3.08;;
7703;SDS011;3894;49.700;10.770;2023-09-18T04:50:58;7.47;;;3.30;;
7703;SDS011;3894;49.700;10.770;2023-09-18T04:53:24;6.85;;;3.20;;
7703;SDS011;3894;49.700;10.770;2023-09-18T04:55:51;7.70;;;3.35;;
7703;SDS011;3894;49.700;10.770;2023-09-18T04:58:17;6.10;;;3.05;;
7703;SDS011;3894;49.700;10.770;2023-09-18T05:00:43;7.10;;;3.35;;
7703;SDS011;3894;49.700;10.770;2023-09-18T05:03:09;8.48;;;3.33;;
7703;SDS011;3894;49.700;10.770;2023-09-18T05:05:35;7.38;;;4.10;;
7703;SDS011;3894;49.700;10.770;2023-09-18T05:08:02;8.05;;;3.65;;
7703;SDS011;3894;49.700;10.770;2023-09-18T05:10:29;6.63;;;3.33;;
7703;SDS011;3894;49.700;10.770;2023-09-18T05:12:55;7.75;;;3.67;;
7703;SDS011;3894;49.700;10.770;2023-09-18T05:15:25;6.97;;;3.33;;
7703;SDS011;3894;49.700;10.770;2023-09-18T05:17:58;6.40;;;3.40;;
7703;SDS011;3894;49.700;10.770;2023-09-18T05:20:25;11.93;;;3.70;;
7703;SDS011;3894;49.700;10.770;2023-09-18T05:22:51;8.05;;;3.38;;
7703;SDS011;3894;49.700;10.770;2023-09-18T05:25:24;6.75;;;3.28;;
7703;SDS011;3894;49.700;10.770;2023-09-18T05:27:51;6.60;;;3.08;;
7703;SDS011;3894;49.700;10.770;2023-09-18T05:30:25;8.88;;;3.75;;
7703;SDS011;3894;49.700;10.770;2023-09-18T05:32:53;7.47;;;4.15;;
7703;SDS011;3894;49.700;10.770;2023-09-18T05:35:19;7.63;;;3.47;;
7703;SDS011;3894;49.700;10.770;2023-09-18T05:37:44;11.48;;;3.85;;
7703;SDS011;3894;49.700;10.770;2023-09-18T05:40:10;8.77;;;4.35;;
7703;SDS011;3894;49.700;10.770;2023-09-18T05:42:39;9.05;;;3.88;;
7703;SDS011;3894;49.700;10.770;2023-09-18T05:45:08;8.75;;;3.53;;
7703;SDS011;3894;49.700;10.770;2023-09-18T05:47:34;9.32;;;3.85;;
7703;SDS011;3894;49.700;10.770;2023-09-18T05:50:01;8.50;;;4.25;;
7703;SDS011;3894;49.700;10.770;2023-09-18T05:52:39;9.15;;;3.63;;
7703;SDS011;3894;49.700;10.770;2023-09-18T05:55:06;6.82;;;3.88;;
7703;SDS011;3894;49.700;10.770;2023-09-18T05:57:35;7.00;;;3.65;;
7703;SDS011;3894;49.700;10.770;2023-09-18T06:00:01;8.35;;;4.15;;
7703;SDS011;3894;49.700;10.770;2023-09-18T06:02:27;8.20;;;3.97;;
7703;SDS011;3894;49.700;10.770;2023-09-18T06:04:56;6.80;;;3.50;;
7703;SDS011;3894;49.700;10.770;2023-09-18T06:07:25;8.00;;;3.75;;
7703;SDS011;3894;49.700;10.770;2023-09-18T06:09:52;11.27;;;4.20;;
7703;SDS011;3894;49.700;10.770;2023-09-18T06:12:18;7.38;;;3.53;;
7703;SDS011;3894;49.700;10.770;2023-09-18T06:14:43;7.72;;;4.32;;
7703;SDS011;3894;49.700;10.770;2023-09-18T06:17:10;9.45;;;4.18;;
7703;SDS011;3894;49.700;10.770;2023-09-18T06:19:35;10.02;;;4.50;;
7703;SDS011;3894;49.700;10.770;2023-09-18T06:22:01;7.93;;;4.00;;
7703;SDS011;3894;49.700;10.770;2023-09-18T06:24:27;10.68;;;4.30;;
7703;SDS011;3894;49.700;10.770;2023-09-18T06:26:52;8.93;;;4.22;;
7703;SDS011;3894;49.700;10.770;2023-09-18T06:29:18;7.45;;;4.30;;
7703;SDS011;3894;49.700;10.770;2023-09-18T06:31:44;9.20;;;4.22;;
7703;SDS011;3894;49.700;10.770;2023-09-18T06:34:10;8.02;;;3.80;;
7703;SDS011;3894;49.700;10.770;2023-09-18T06:36:35;8.57;;;4.05;;
7703;SDS011;3894;49.700;10.770;2023-09-18T06:39:02;7.63;;;3.75;;
7703;SDS011;3894;49.700;10.770;2023-09-18T06:41:28;7.63;;;3.90;;
7703;SDS011;3894;49.700;10.770;2023-09-18T06:43:53;7.90;;;3.60;;
7703;SDS011;3894;49.700;10.770;2023-09-18T06:46:19;7.35;;;3.97;;
7703;SDS011;3894;49.700;10.770;2023-09-18T06:48:45;7.25;;;4.10;;
7703;SDS011;3894;49.700;10.770;2023-09-18T06:51:14;8.32;;;4.20;;
7703;SDS011;3894;49.700;10.770;2023-09-18T06:53:40;7.97;;;4.30;;
7703;SDS011;3894;49.700;10.770;2023-09-18T06:56:06;9.70;;;4.50;;
7703;SDS011;3894;49.700;10.770;2023-09-18T06:58:32;10.80;;;4.60;;
7703;SDS011;3894;49.700;10.770;2023-09-18T07:00:57;8.70;;;4.32;;
7703;SDS011;3894;49.700;10.770;2023-09-18T07:03:23;7.50;;;4.65;;
7703;SDS011;3894;49.700;10.770;2023-09-18T07:05:49;8.05;;;3.53;;
7703;SDS011;3894;49.700;10.770;2023-09-18T07:08:14;8.00;;;3.90;;
7703;SDS011;3894;49.700;10.770;2023-09-18T07:10:44;7.47;;;4.00;;
7703;SDS011;3894;49.700;10.770;2023-09-18T07:13:10;7.63;;;3.70;;
7703;SDS011;3894;49.700;10.770;2023-09-18T07:15:36;8.32;;;3.90;;
7703;SDS011;3894;49.700;10.770;2023-09-18T07:18:02;6.72;;;3.95;;
7703;SDS011;3894;49.700;10.770;2023-09-18T07:20:28;7.25;;;4.07;;
7703;SDS011;3894;49.700;10.770;2023-09-18T07:22:54;7.60;;;4.00;;
7703;SDS011;3894;49.700;10.770;2023-09-18T07:25:21;8.55;;;4.20;;
7703;SDS011;3894;49.700;10.770;2023-09-18T07:27:46;6.80;;;4.07;;
7703;SDS011;3894;49.700;10.770;2023-09-18T07:30:13;7.72;;;4.32;;
7703;SDS011;3894;49.700;10.770;2023-09-18T07:32:43;7.65;;;4.07;;
7703;SDS011;3894;49.700;10.770;2023-09-18T07:35:09;7.20;;;3.88;;
7703;SDS011;3894;49.700;10.770;2023-09-18T07:37:35;7.93;;;3.70;;
7703;SDS011;3894;49.700;10.770;2023-09-18T07:40:02;8.43;;;4.20;;
7703;SDS011;3894;49.700;10.770;2023-09-18T07:42:29;9.00;;;4.55;;
7703;SDS011;3894;49.700;10.770;2023-09-18T07:44:55;7.82;;;3.47;;
7703;SDS011;3894;49.700;10.770;2023-09-18T07:47:20;8.13;;;3.75;;
7703;SDS011;3894;49.700;10.770;2023-09-18T07:49:47;10.38;;;4.38;;
7703;SDS011;3894;49.700;10.770;2023-09-18T07:52:13;6.80;;;3.65;;
7703;SDS011;3894;49.700;10.770;2023-09-18T07:54:38;6.45;;;3.28;;
7703;SDS011;3894;49.700;10.770;2023-09-18T07:57:04;8.65;;;4.63;;
7703;SDS011;3894;49.700;10.770;2023-09-18T07:59:34;6.70;;;3.75;;
7703;SDS011;3894;49.700;10.770;2023-09-18T08:02:04;7.07;;;3.97;;
7703;SDS011;3894;49.700;10.770;2023-09-18T08:04:33;7.72;;;4.22;;
7703;SDS011;3894;49.700;10.770;2023-09-18T08:06:59;6.57;;;3.42;;
7703;SDS011;3894;49.700;10.770;2023-09-18T08:09:25;7.72;;;3.78;;
7703;SDS011;3894;49.700;10.770;2023-09-18T08:11:51;7.88;;;4.20;;
7703;SDS011;3894;49.700;10.770;2023-09-18T08:14:20;6.85;;;4.10;;
7703;SDS011;3894;49.700;10.770;2023-09-18T08:16:49;8.27;;;4.20;;
7703;SDS011;3894;49.700;10.770;2023-09-18T08:19:22;7.53;;;3.75;;
7703;SDS011;3894;49.700;10.770;2023-09-18T08:21:49;7.47;;;4.28;;
7703;SDS011;3894;49.700;10.770;2023-09-18T08:24:14;8.00;;;3.90;;
7703;SDS011;3894;49.700;10.770;2023-09-18T08:26:40;7.70;;;3.92;;
7703;SDS011;3894;49.700;10.770;2023-09-18T08:29:05;9.88;;;3.85;;
7703;SDS011;3894;49.700;10.770;2023-09-18T08:31:31;7.35;;;4.05;;
7703;SDS011;3894;49.700;10.770;2023-09-18T08:33:57;8.85;;;4.18;;
7703;SDS011;3894;49.700;10.770;2023-09-18T08:36:22;8.95;;;3.85;;
7703;SDS011;3894;49.700;10.770;2023-09-18T08:38:48;7.38;;;4.10;;
7703;SDS011;3894;49.700;10.770;2023-09-18T08:41:14;9.02;;;3.97;;
7703;SDS011;3894;49.700;10.770;2023-09-18T08:43:42;7.45;;;3.17;;
7703;SDS011;3894;49.700;10.770;2023-09-18T08:46:09;9.60;;;3.80;;
7703;SDS011;3894;49.700;10.770;2023-09-18T08:48:35;7.32;;;3.25;;
7703;SDS011;3894;49.700;10.770;2023-09-18T08:51:05;8.05;;;3.65;;
7703;SDS011;3894;49.700;10.770;2023-09-18T08:53:32;6.50;;;3.83;;
7703;SDS011;3894;49.700;10.770;2023-09-18T08:55:59;7.90;;;3.88;;
7703;SDS011;3894;49.700;10.770;2023-09-18T08:58:28;6.75;;;2.78;;
7703;SDS011;3894;49.700;10.770;2023-09-18T09:00:56;11.68;;;3.03;;
7703;SDS011;3894;49.700;10.770;2023-09-18T09:03:22;7.90;;;3.03;;
7703;SDS011;3894;49.700;10.770;2023-09-18T09:05:48;8.45;;;3.28;;
7703;SDS011;3894;49.700;10.770;2023-09-18T09:08:14;8.65;;;3.40;;
7703;SDS011;3894;49.700;10.770;2023-09-18T09:10:40;8.23;;;3.30;;
7703;SDS011;3894;49.700;10.770;2023-09-18T09:13:06;8.93;;;2.78;;
7703;SDS011;3894;49.700;10.770;2023-09-18T09:15:32;8.05;;;2.97;;
7703;SDS011;3894;49.700;10.770;2023-09-18T09:18:10;7.05;;;2.72;;
7703;SDS011;3894;49.700;10.770;2023-09-18T09:20:37;8.25;;;2.58;;
7703;SDS011;3894;49.700;10.770;2023-09-18T09:23:03;8.23;;;2.85;;
7703;SDS011;3894;49.700;10.770;2023-09-18T09:25:31;7.63;;;2.33;;
7703;SDS011;3894;49.700;10.770;2023-09-18T09:27:58;7.85;;;2.20;;
7703;SDS011;3894;49.700;10.770;2023-09-18T09:30:29;6.47;;;1.98;;
7703;SDS011;3894;49.700;10.770;2023-09-18T09:32:57;6.95;;;1.92;;
7703;SDS011;3894;49.700;10.770;2023-09-18T09:37:52;6.80;;;1.63;;
7703;SDS011;3894;49.700;10.770;2023-09-18T09:40:22;5.13;;;1.77;;
7703;SDS011;3894;49.700;10.770;2023-09-18T09:42:50;4.80;;;1.42;;
7703;SDS011;3894;49.700;10.770;2023-09-18T09:45:19;5.22;;;1.17;;
7703;SDS011;3894;49.700;10.770;2023-09-18T09:47:45;6.70;;;1.65;;
7703;SDS011;3894;49.700;10.770;2023-09-18T09:52:44;5.30;;;1.30;;
7703;SDS011;3894;49.700;10.770;2023-09-18T09:55:34;7.15;;;1.00;;
7703;SDS011;3894;49.700;10.770;2023-09-18T09:58:03;5.70;;;1.13;;
7703;SDS011;3894;49.700;10.770;2023-09-18T10:00:33;5.72;;;1.13;;
7703;SDS011;3894;49.700;10.770;2023-09-18T10:03:14;6.72;;;1.40;;
7703;SDS011;3894;49.700;10.770;2023-09-18T10:05:43;4.95;;;1.38;;
7703;SDS011;3894;49.700;10.770;2023-09-18T10:08:17;6.50;;;0.93;;
7703;SDS011;3894;49.700;10.770;2023-09-18T10:10:46;9.02;;;1.38;;
7703;SDS011;3894;49.700;10.770;2023-09-18T10:13:22;5.55;;;1.27;;
7703;SDS011;3894;49.700;10.770;2023-09-18T10:15:52;7.03;;;0.73;;
7703;SDS011;3894;49.700;10.770;2023-09-18T10:21:32;4.25;;;0.75;;
7703;SDS011;3894;49.700;10.770;2023-09-18T10:26:25;5.50;;;0.90;;
7703;SDS011;3894;49.700;10.770;2023-09-18T10:28:55;5.03;;;0.80;;
7703;SDS011;3894;49.700;10.770;2023-09-18T10:31:28;4.30;;;0.60;;
7703;SDS011;3894;49.700;10.770;2023-09-18T10:33:54;10.25;;;1.23;;
7703;SDS011;3894;49.700;10.770;2023-09-18T10:36:22;4.57;;;0.90;;
7703;SDS011;3894;49.700;10.770;2023-09-18T10:38:49;4.75;;;0.65;;
7703;SDS011;3894;49.700;10.770;2023-09-18T10:41:18;4.78;;;0.57;;
7703;SDS011;3894;49.700;10.770;2023-09-18T10:43:45;5.43;;;0.65;;
7703;SDS011;3894;49.700;10.770;2023-09-18T10:46:12;5.78;;;0.75;;
7703;SDS011;3894;49.700;10.770;2023-09-18T10:48:40;5.78;;;0.75;;
7703;SDS011;3894;49.700;10.770;2023-09-18T10:51:08;4.20;;;0.90;;
7703;SDS011;3894;49.700;10.770;2023-09-18T10:53:34;6.22;;;1.30;;
7703;SDS011;3894;49.700;10.770;2023-09-18T10:56:01;5.95;;;0.52;;
7703;SDS011;3894;49.700;10.770;2023-09-18T10:58:29;4.40;;;1.00;;
7703;SDS011;3894;49.700;10.770;2023-09-18T11:00:55;4.82;;;0.65;;
7703;SDS011;3894;49.700;10.770;2023-09-18T11:03:22;6.25;;;0.80;;
7703;SDS011;3894;49.700;10.770;2023-09-18T11:05:48;4.85;;;0.80;;
7703;SDS011;3894;49.700;10.770;2023-09-18T11:11:01;5.60;;;0.45;;
7703;SDS011;3894;49.700;10.770;2023-09-18T11:13:35;6.82;;;0.70;;
7703;SDS011;3894;49.700;10.770;2023-09-18T11:16:12;4.45;;;0.68;;
7703;SDS011;3894;49.700;10.770;2023-09-18T11:18:45;4.78;;;0.73;;
7703;SDS011;3894;49.700;10.770;2023-09-18T11:21:13;5.82;;;0.77;;
7703;SDS011;3894;49.700;10.770;2023-09-18T11:23:42;3.97;;;0.43;;
7703;SDS011;3894;49.700;10.770;2023-09-18T11:26:08;4.85;;;0.60;;
7703;SDS011;3894;49.700;10.770;2023-09-18T11:28:40;4.85;;;0.70;;
7703;SDS011;3894;49.700;10.770;2023-09-18T11:31:07;5.55;;;0.68;;
7703;SDS011;3894;49.700;10.770;2023-09-18T11:33:35;4.20;;;0.73;;
7703;SDS011;3894;49.700;10.770;2023-09-18T11:36:05;4.38;;;0.50;;
7703;SDS011;3894;49.700;10.770;2023-09-18T11:39:01;4.43;;;1.05;;
7703;SDS011;3894;49.700;10.770;2023-09-18T11:41:29;4.75;;;0.60;;
7703;SDS011;3894;49.700;10.770;2023-09-18T11:46:39;5.85;;;0.63;;
7703;SDS011;3894;49.700;10.770;2023-09-18T11:49:06;6.70;;;1.00;;
7703;SDS011;3894;49.700;10.770;2023-09-18T11:51:35;5.72;;;0.98;;
7703;SDS011;3894;49.700;10.770;2023-09-18T11:54:01;4.97;;;1.15;;
7703;SDS011;3894;49.700;10.770;2023-09-18T11:56:28;7.50;;;1.63;;
7703;SDS011;3894;49.700;10.770;2023-09-18T11:58:54;6.70;;;0.77;;
7703;SDS011;3894;49.700;10.770;2023-09-18T12:01:21;5.75;;;0.95;;
7703;SDS011;3894;49.700;10.770;2023-09-18T12:04:08;5.38;;;0.60;;
7703;SDS011;3894;49.700;10.770;2023-09-18T12:06:34;3.55;;;0.55;;
7703;SDS011;3894;49.700;10.770;2023-09-18T12:09:01;4.75;;;0.47;;
7703;SDS011;3894;49.700;10.770;2023-09-18T12:11:28;5.82;;;0.57;;
7703;SDS011;3894;49.700;10.770;2023-09-18T12:13:55;4.88;;;0.70;;
7703;SDS011;3894;49.700;10.770;2023-09-18T12:16:20;5.47;;;0.57;;
7703;SDS011;3894;49.700;10.770;2023-09-18T12:18:47;5.28;;;0.45;;
7703;SDS011;3894;49.700;10.770;2023-09-18T12:21:13;3.53;;;0.70;;
7703;SDS011;3894;49.700;10.770;2023-09-18T12:23:42;4.03;;;0.60;;
7703;SDS011;3894;49.700;10.770;2023-09-18T12:26:10;4.45;;;0.55;;
7703;SDS011;3894;49.700;10.770;2023-09-18T12:28:44;5.25;;;0.70;;
7703;SDS011;3894;49.700;10.770;2023-09-18T12:31:13;5.00;;;0.60;;
7703;SDS011;3894;49.700;10.770;2023-09-18T12:33:39;3.80;;;0.43;;
7703;SDS011;3894;49.700;10.770;2023-09-18T12:36:12;4.28;;;0.50;;
7703;SDS011;3894;49.700;10.770;2023-09-18T12:38:39;5.78;;;0.93;;
7703;SDS011;3894;49.700;10.770;2023-09-18T12:41:05;6.35;;;0.60;;
7703;SDS011;3894;49.700;10.770;2023-09-18T12:43:37;4.72;;;0.65;;
7703;SDS011;3894;49.700;10.770;2023-09-18T12:46:05;4.40;;;0.68;;
7703;SDS011;3894;49.700;10.770;2023-09-18T12:48:31;3.65;;;0.68;;
7703;SDS011;3894;49.700;10.770;2023-09-18T12:51:04;5.43;;;0.60;;
7703;SDS011;3894;49.700;10.770;2023-09-18T12:53:31;5.53;;;0.63;;
7703;SDS011;3894;49.700;10.770;2023-09-18T12:58:38;4.22;;;0.73;;
7703;SDS011;3894;49.700;10.770;2023-09-18T13:01:06;5.35;;;0.65;;
7703;SDS011;3894;49.700;10.770;2023-09-18T13:03:53;4.97;;;0.70;;
7703;SDS011;3894;49.700;10.770;2023-09-18T13:06:20;6.05;;;0.68;;
7703;SDS011;3894;49.700;10.770;2023-09-18T13:08:46;4.95;;;0.60;;
7703;SDS011;3894;49.700;10.770;2023-09-18T13:11:12;3.28;;;0.57;;
7703;SDS011;3894;49.700;10.770;2023-09-18T13:13:41;4.65;;;0.73;;
7703;SDS011;3894;49.700;10.770;2023-09-18T13:16:08;5.50;;;0.63;;
7703;SDS011;3894;49.700;10.770;2023-09-18T13:18:34;3.10;;;0.40;;
7703;SDS011;3894;49.700;10.770;2023-09-18T13:21:00;3.72;;;0.55;;
7703;SDS011;3894;49.700;10.770;2023-09-18T13:23:34;4.18;;;0.47;;
7703;SDS011;3894;49.700;10.770;2023-09-18T13:26:00;3.40;;;0.47;;
7703;SDS011;3894;49.700;10.770;2023-09-18T13:28:28;4.50;;;0.55;;
7703;SDS011;3894;49.700;10.770;2023-09-18T13:30:56;4.78;;;0.30;;
7703;SDS011;3894;49.700;10.770;2023-09-18T13:33:22;3.83;;;0.40;;
7703;SDS011;3894;49.700;10.770;2023-09-18T13:35:48;6.28;;;0.77;;
7703;SDS011;3894;49.700;10.770;2023-09-18T13:38:14;3.15;;;0.32;;
7703;SDS011;3894;49.700;10.770;2023-09-18T13:40:41;4.15;;;0.30;;
7703;SDS011;3894;49.700;10.770;2023-09-18T13:43:08;3.28;;;0.60;;
7703;SDS011;3894;49.700;10.770;2023-09-18T13:45:36;2.25;;;0.22;;
7703;SDS011;3894;49.700;10.770;2023-09-18T13:48:02;4.43;;;0.55;;
7703;SDS011;3894;49.700;10.770;2023-09-18T13:50:28;4.50;;;0.30;;
7703;SDS011;3894;49.700;10.770;2023-09-18T13:52:54;3.20;;;0.60;;
7703;SDS011;3894;49.700;10.770;2023-09-18T13:55:20;2.70;;;0.20;;
7703;SDS011;3894;49.700;10.770;2023-09-18T13:57:47;3.47;;;0.30;;
7703;SDS011;3894;49.700;10.770;2023-09-18T14:00:13;2.85;;;0.32;;
7703;SDS011;3894;49.700;10.770;2023-09-18T14:02:39;3.88;;;0.40;;
7703;SDS011;3894;49.700;10.770;2023-09-18T14:05:05;3.35;;;0.40;;
7703;SDS011;3894;49.700;10.770;2023-09-18T14:07:32;4.00;;;0.47;;
7703;SDS011;3894;49.700;10.770;2023-09-18T14:09:57;2.40;;;0.45;;
7703;SDS011;3894;49.700;10.770;2023-09-18T14:12:24;2.90;;;0.40;;
7703;SDS011;3894;49.700;10.770;2023-09-18T14:14:50;3.38;;;0.50;;
7703;SDS011;3894;49.700;10.770;2023-09-18T14:17:15;3.38;;;0.40;;
7703;SDS011;3894;49.700;10.770;2023-09-18T14:19:43;4.75;;;0.30;;
7703;SDS011;3894;49.700;10.770;2023-09-18T14:22:09;5.22;;;0.43;;
7703;SDS011;3894;49.700;10.770;2023-09-18T14:24:34;4.65;;;0.40;;
7703;SDS011;3894;49.700;10.770;2023-09-18T14:27:01;4.15;;;0.40;;
7703;SDS011;3894;49.700;10.770;2023-09-18T14:29:28;2.15;;;0.20;;
7703;SDS011;3894;49.700;10.770;2023-09-18T14:31:58;3.25;;;0.43;;
7703;SDS011;3894;49.700;10.770;2023-09-18T14:34:24;4.03;;;0.30;;
7703;SDS011;3894;49.700;10.770;2023-09-18T14:36:50;1.35;;;0.15;;
7703;SDS011;3894;49.700;10.770;2023-09-18T14:39:15;4.25;;;0.20;;
7703;SDS011;3894;49.700;10.770;2023-09-18T14:41:42;2.88;;;0.40;;
7703;SDS011;3894;49.700;10.770;2023-09-18T14:44:09;3.72;;;0.30;;
7703;SDS011;3894;49.700;10.770;2023-09-18T14:46:35;4.53;;;0.43;;
7703;SDS011;3894;49.700;10.770;2023-09-18T14:49:02;3.60;;;0.40;;
7703;SDS011;3894;49.700;10.770;2023-09-18T14:51:32;4.65;;;0.57;;
7703;SDS011;3894;49.700;10.770;2023-09-18T14:53:59;2.50;;;0.30;;
7703;SDS011;3894;49.700;10.770;2023-09-18T14:56:26;3.17;;;0.30;;
7703;SDS011;3894;49.700;10.770;2023-09-18T14:58:52;2.20;;;0.25;;
7703;SDS011;3894;49.700;10.770;2023-09-18T15:01:20;2.63;;;0.30;;
7703;SDS011;3894;49.700;10.770;2023-09-18T15:03:46;2.85;;;0.30;;
7703;SDS011;3894;49.700;10.770;2023-09-18T15:06:13;2.90;;;0.40;;
7703;SDS011;3894;49.700;10.770;2023-09-18T15:08:39;4.60;;;0.30;;
7703;SDS011;3894;49.700;10.770;2023-09-18T15:11:05;3.25;;;0.40;;
7703;SDS011;3894;49.700;10.770;2023-09-18T15:13:31;3.58;;;0.30;;
7703;SDS011;3894;49.700;10.770;2023-09-18T15:15:57;4.03;;;0.40;;
7703;SDS011;3894;49.700;10.770;2023-09-18T15:18:22;2.78;;;0.30;;
7703;SDS011;3894;49.700;10.770;2023-09-18T15:20:48;3.63;;;0.30;;
7703;SDS011;3894;49.700;10.770;2023-09-18T15:23:19;2.50;;;0.50;;